Time;durP1;ratioP1;P1;durP2;ratioP2;P2;SDS_P1;SDS_P2;PMS_P1;PMS_P2;Temp;Humidity;BMP_temperature;BMP_pressure;BME280_temperature;BME280_humidity;BME280_pressure;Samples;Min_cycle;Max_cycle;Signal;HPM_P1;HPM_P2
2022/05/30 00:00:06;;;;;;;1.23;1.23;;;11.10;99.90;;;;;;5151221;27;20504;-68
2022/05/30 00:02:55;;;;;;;0.40;0.40;;;11.10;99.90;;;;;;5151901;27;20480;-68
2022/05/30 00:05:47;;;;;;;0.40;0.40;;;11.10;99.90;;;;;;5152317;27;20871;-68
2022/05/30 00:08:36;;;;;;;0.40;0.40;;;11.10;99.90;;;;;;5150874;27;20451;-68
2022/05/30 00:11:25;;;;;;;0.43;0.43;;;11.00;99.90;;;;;;5150843;27;20423;-68
2022/05/30 00:14:13;;;;;;;0.60;0.60;;;11.00;99.90;;;;;;5151819;27;20422;-67
2022/05/30 00:17:01;;;;;;;0.40;0.40;;;11.00;99.90;;;;;;5151185;27;20432;-68
2022/05/30 00:19:49;;;;;;;0.40;0.40;;;11.00;99.90;;;;;;5152304;27;20412;-68
2022/05/30 00:22:38;;;;;;;0.50;0.50;;;11.00;99.90;;;;;;5150284;27;20416;-67
2022/05/30 00:25:26;;;;;;;0.40;0.40;;;11.10;99.90;;;;;;5151637;27;20419;-67
2022/05/30 00:28:16;;;;;;;0.40;0.40;;;11.10;99.90;;;;;;5151208;27;20483;-68
2022/05/30 00:31:04;;;;;;;0.40;0.40;;;11.10;99.90;;;;;;5151738;27;20420;-68
2022/05/30 00:33:53;;;;;;;0.40;0.40;;;11.20;99.90;;;;;;5151562;27;20430;-67
2022/05/30 00:36:41;;;;;;;0.40;0.40;;;11.10;99.90;;;;;;5151204;27;20436;-68
2022/05/30 00:39:30;;;;;;;0.40;0.40;;;11.10;99.90;;;;;;5151509;27;20468;-67
2022/05/30 00:42:21;;;;;;;0.40;0.40;;;11.10;99.90;;;;;;5149802;27;20477;-68
2022/05/30 00:45:10;;;;;;;0.50;0.50;;;11.00;99.90;;;;;;5151345;27;20423;-69
2022/05/30 00:47:58;;;;;;;0.50;0.50;;;11.10;99.90;;;;;;5151073;27;20460;-68
2022/05/30 00:50:48;;;;;;;0.40;0.40;;;11.10;99.90;;;;;;5150530;27;20412;-68
2022/05/30 00:57:48;;;;;;;0.40;0.40;;;11.10;99.90;;;;;;5138156;27;20428;-67
2022/05/30 01:00:36;;;;;;;0.40;0.40;;;11.10;99.90;;;;;;5119771;27;20425;-67
2022/05/30 01:06:34;;;;;;;0.40;0.40;;;11.20;99.90;;;;;;5115961;28;20516;-68
2022/05/30 01:09:28;;;;;;;0.40;0.40;;;11.20;99.90;;;;;;5116544;28;20494;-69
2022/05/30 01:12:16;;;;;;;0.40;0.40;;;11.20;99.90;;;;;;5116454;28;21014;-67
2022/05/30 01:15:09;;;;;;;0.40;0.40;;;11.10;99.90;;;;;;5115923;28;20840;-67
2022/05/30 01:18:00;;;;;;;0.40;0.40;;;11.10;99.90;;;;;;5115232;28;20441;-67
2022/05/30 01:20:56;;;;;;;0.40;0.40;;;11.10;99.90;;;;;;5116097;28;20511;-69
2022/05/30 01:23:58;;;;;;;0.40;0.40;;;11.10;99.90;;;;;;5116093;28;20433;-69
2022/05/30 01:27:03;;;;;;;0.40;0.40;;;11.10;99.90;;;;;;5115809;28;20444;-67
2022/05/30 01:29:58;;;;;;;0.40;0.40;;;11.10;99.90;;;;;;5118375;27;20418;-68
2022/05/30 01:32:47;;;;;;;0.50;0.50;;;11.10;99.90;;;;;;5136966;27;20438;-68
2022/05/30 01:35:35;;;;;;;0.40;0.40;;;11.10;99.90;;;;;;5135399;27;20478;-68
2022/05/30 01:38:24;;;;;;;0.50;0.50;;;11.10;99.90;;;;;;5136043;27;20436;-67
2022/05/30 01:41:12;;;;;;;0.50;0.50;;;11.10;99.90;;;;;;5135786;27;20533;-69
2022/05/30 01:44:00;;;;;;;0.50;0.50;;;11.10;99.90;;;;;;5136182;27;20421;-68
2022/05/30 01:46:50;;;;;;;0.40;0.40;;;11.00;99.90;;;;;;5135702;27;20494;-68
2022/05/30 01:49:38;;;;;;;0.40;0.40;;;11.00;99.90;;;;;;5135580;27;20754;-68
2022/05/30 01:52:28;;;;;;;0.40;0.40;;;11.00;99.90;;;;;;5136510;27;20425;-68
2022/05/30 01:55:16;;;;;;;0.50;0.50;;;11.00;99.90;;;;;;5136226;27;20433;-68
2022/05/30 01:58:05;;;;;;;0.70;0.70;;;11.00;99.90;;;;;;5131944;27;20523;-67
2022/05/30 02:00:53;;;;;;;0.40;0.40;;;11.00;99.90;;;;;;5117297;27;20444;-68
2022/05/30 02:03:42;;;;;;;0.50;0.50;;;11.10;99.90;;;;;;5114965;28;20425;-68
2022/05/30 02:06:31;;;;;;;0.40;0.40;;;11.10;99.90;;;;;;5114660;28;20481;-67
2022/05/30 02:09:20;;;;;;;0.40;0.40;;;11.10;99.90;;;;;;5115435;28;20514;-67
2022/05/30 02:12:09;;;;;;;0.43;0.43;;;11.10;99.90;;;;;;5114614;28;20430;-67
2022/05/30 02:14:57;;;;;;;0.40;0.40;;;11.10;99.90;;;;;;5115074;28;20441;-68
2022/05/30 02:17:44;;;;;;;0.40;0.40;;;11.00;99.90;;;;;;5114644;28;20438;-68
2022/05/30 02:20:33;;;;;;;0.40;0.40;;;11.00;99.90;;;;;;5114894;28;20461;-68
2022/05/30 02:23:21;;;;;;;1.47;1.37;;;10.90;99.90;;;;;;5115266;28;20430;-67
2022/05/30 02:26:10;;;;;;;0.50;0.50;;;11.00;99.90;;;;;;5114258;28;20421;-68
2022/05/30 02:28:58;;;;;;;0.40;0.40;;;10.80;99.90;;;;;;5114321;28;20466;-69
2022/05/30 02:31:47;;;;;;;0.50;0.50;;;10.80;99.90;;;;;;5132337;27;20428;-69
2022/05/30 02:37:42;;;;;;;0.63;0.63;;;10.70;99.90;;;;;;5133990;27;20464;-68
2022/05/30 02:40:30;;;;;;;0.50;0.50;;;10.70;99.90;;;;;;5133255;27;20424;-69
2022/05/30 02:43:18;;;;;;;0.90;0.90;;;10.60;99.90;;;;;;5133530;27;20417;-68
2022/05/30 02:46:06;;;;;;;2.50;1.37;;;10.60;99.90;;;;;;5133428;27;20509;-68
2022/05/30 02:48:55;;;;;;;0.40;0.40;;;10.60;99.90;;;;;;5133185;27;20460;-68
2022/05/30 02:51:43;;;;;;;0.50;0.50;;;10.70;99.90;;;;;;5135025;27;20424;-68
2022/05/30 02:54:32;;;;;;;0.50;0.50;;;10.70;99.90;;;;;;5134181;27;20449;-68
2022/05/30 02:57:20;;;;;;;0.50;0.50;;;10.70;99.90;;;;;;5134174;27;20456;-67
2022/05/30 03:00:10;;;;;;;0.40;0.40;;;10.70;99.90;;;;;;5135605;27;20798;-67
2022/05/30 03:02:58;;;;;;;0.40;0.40;;;10.80;99.90;;;;;;5134708;27;20945;-69
2022/05/30 03:05:46;;;;;;;0.40;0.40;;;10.80;99.90;;;;;;5134284;27;20497;-69
2022/05/30 03:08:34;;;;;;;0.80;0.80;;;10.70;99.90;;;;;;5133302;27;20452;-70
2022/05/30 03:11:23;;;;;;;0.40;0.40;;;10.60;99.90;;;;;;5132691;27;20420;-69
2022/05/30 03:14:12;;;;;;;0.40;0.40;;;10.60;99.90;;;;;;5134177;27;20851;-69
2022/05/30 03:16:59;;;;;;;0.50;0.50;;;10.60;99.90;;;;;;5133576;27;20863;-69
2022/05/30 03:19:50;;;;;;;0.60;0.50;;;10.60;99.90;;;;;;5123948;27;20433;-69
2022/05/30 03:22:39;;;;;;;0.50;0.50;;;10.60;99.90;;;;;;5111924;28;20457;-70
2022/05/30 03:25:27;;;;;;;0.40;0.40;;;10.50;99.90;;;;;;5112230;28;20474;-68
2022/05/30 03:28:17;;;;;;;0.83;0.83;;;10.50;99.90;;;;;;5112121;28;20444;-69
2022/05/30 03:31:07;;;;;;;0.40;0.40;;;10.50;99.90;;;;;;5125897;27;20965;-70
2022/05/30 03:33:55;;;;;;;0.40;0.40;;;10.40;99.90;;;;;;5133037;27;20548;-69
2022/05/30 03:36:43;;;;;;;1.77;1.43;;;10.40;99.90;;;;;;5132171;27;20842;-68
2022/05/30 03:39:31;;;;;;;0.40;0.40;;;10.40;99.90;;;;;;5131852;27;20427;-69
2022/05/30 03:42:19;;;;;;;0.60;0.60;;;10.40;99.90;;;;;;5132907;27;20416;-69
2022/05/30 03:45:10;;;;;;;0.40;0.40;;;10.50;99.90;;;;;;5132983;28;20452;-69
2022/05/30 03:47:58;;;;;;;0.40;0.40;;;10.50;99.90;;;;;;5133644;28;20457;-68
2022/05/30 03:50:46;;;;;;;0.40;0.40;;;10.50;99.90;;;;;;5132234;28;20914;-70
2022/05/30 03:53:34;;;;;;;0.50;0.50;;;10.60;99.90;;;;;;5133159;28;20792;-68
2022/05/30 03:56:22;;;;;;;0.40;0.40;;;10.50;99.90;;;;;;5132496;28;20444;-67
2022/05/30 03:59:10;;;;;;;0.40;0.40;;;10.50;99.90;;;;;;5133695;28;20421;-69
2022/05/30 04:02:00;;;;;;;0.40;0.40;;;10.50;99.90;;;;;;5133072;28;20465;-69
2022/05/30 04:04:48;;;;;;;0.60;0.60;;;10.50;99.90;;;;;;5133108;28;20525;-70
2022/05/30 04:07:36;;;;;;;0.57;0.50;;;10.60;99.90;;;;;;5133324;28;20448;-70
2022/05/30 04:10:25;;;;;;;1.03;0.70;;;10.70;99.90;;;;;;5133190;28;20505;-68
2022/05/30 04:13:13;;;;;;;0.40;0.40;;;10.70;99.90;;;;;;5133823;28;20469;-66
2022/05/30 04:16:08;;;;;;;0.40;0.40;;;10.70;99.90;;;;;;5132407;28;20424;-68
2022/05/30 04:18:58;;;;;;;0.40;0.40;;;10.70;99.90;;;;;;5133297;28;20951;-67
2022/05/30 04:21:46;;;;;;;0.80;0.80;;;10.60;99.90;;;;;;5132192;28;20424;-69
2022/05/30 04:24:34;;;;;;;0.40;0.40;;;10.60;99.90;;;;;;5132844;28;20424;-68
2022/05/30 04:27:23;;;;;;;0.40;0.40;;;10.50;99.90;;;;;;5132613;28;20485;-69
2022/05/30 04:30:12;;;;;;;0.40;0.40;;;10.50;99.90;;;;;;5132257;28;20509;-68
2022/05/30 04:33:00;;;;;;;0.40;0.40;;;10.60;99.90;;;;;;5132907;27;20421;-68
2022/05/30 04:35:49;;;;;;;0.40;0.40;;;10.60;99.90;;;;;;5137439;27;20428;-67
2022/05/30 04:38:37;;;;;;;0.50;0.50;;;10.70;99.90;;;;;;5137391;27;20431;-67
2022/05/30 04:41:25;;;;;;;0.50;0.50;;;10.80;99.90;;;;;;5136832;27;20952;-68
2022/05/30 04:44:14;;;;;;;0.40;0.40;;;10.80;99.90;;;;;;5137291;27;20477;-68
2022/05/30 04:47:02;;;;;;;0.40;0.40;;;10.80;99.90;;;;;;5136332;27;20467;-68
2022/05/30 04:49:50;;;;;;;0.50;0.40;;;10.90;99.90;;;;;;5136883;27;20476;-68
2022/05/30 04:52:39;;;;;;;0.40;0.40;;;10.90;99.90;;;;;;5136427;27;20417;-68
2022/05/30 04:55:27;;;;;;;0.50;0.50;;;11.00;99.90;;;;;;5136965;27;20481;-69
2022/05/30 04:58:15;;;;;;;1.27;1.17;;;11.20;99.90;;;;;;5136736;27;20448;-68
2022/05/30 05:01:06;;;;;;;1.90;0.80;;;11.10;99.90;;;;;;5136333;27;20463;-69
2022/05/30 05:03:54;;;;;;;0.77;0.70;;;11.10;99.90;;;;;;5136543;27;20412;-68
2022/05/30 05:06:44;;;;;;;0.40;0.40;;;11.10;99.90;;;;;;5136396;27;20976;-68
2022/05/30 05:09:45;;;;;;;0.40;0.40;;;11.20;99.90;;;;;;5136195;27;20462;-69
2022/05/30 05:12:33;;;;;;;0.50;0.50;;;11.20;99.90;;;;;;5136133;27;20427;-69
2022/05/30 05:15:21;;;;;;;0.53;0.53;;;11.30;99.90;;;;;;5135995;27;20432;-68
2022/05/30 05:18:09;;;;;;;0.43;0.43;;;11.30;99.90;;;;;;5136760;27;20460;-69
2022/05/30 05:20:58;;;;;;;0.40;0.40;;;11.40;99.90;;;;;;5137392;27;20420;-68
2022/05/30 05:23:46;;;;;;;0.40;0.40;;;11.50;99.90;;;;;;5137125;27;20428;-68
2022/05/30 05:26:35;;;;;;;3.50;1.27;;;11.40;99.90;;;;;;5136201;27;20449;-68
2022/05/30 05:29:23;;;;;;;0.50;0.43;;;11.30;99.90;;;;;;5135581;27;20875;-70
2022/05/30 05:32:11;;;;;;;22.23;1.70;;;11.20;99.90;;;;;;5115955;28;20963;-69
2022/05/30 05:34:59;;;;;;;0.50;0.50;;;11.30;99.90;;;;;;5116788;28;20422;-69
2022/05/30 05:37:47;;;;;;;0.50;0.50;;;11.30;99.90;;;;;;5135696;27;20976;-68
2022/05/30 05:40:39;;;;;;;0.60;0.60;;;11.30;99.90;;;;;;5156005;27;20449;-68
2022/05/30 05:43:28;;;;;;;0.60;0.60;;;11.30;99.90;;;;;;5156704;27;20411;-69
2022/05/30 05:46:20;;;;;;;0.50;0.50;;;11.30;99.90;;;;;;5149810;27;20420;-68
2022/05/30 05:49:09;;;;;;;0.50;0.50;;;11.30;99.90;;;;;;5135391;27;20826;-68
2022/05/30 05:51:58;;;;;;;0.50;0.50;;;11.50;99.90;;;;;;5115725;28;20413;-68
2022/05/30 05:54:46;;;;;;;0.40;0.40;;;11.70;99.90;;;;;;5115457;28;20422;-70
2022/05/30 05:57:34;;;;;;;0.60;0.60;;;11.80;99.90;;;;;;5114441;28;20442;-67
2022/05/30 06:00:23;;;;;;;0.40;0.40;;;11.90;99.90;;;;;;5115679;28;20452;-68
2022/05/30 06:03:11;;;;;;;0.40;0.40;;;11.70;99.90;;;;;;5115059;28;20418;-69
2022/05/30 06:05:59;;;;;;;0.40;0.40;;;11.70;99.90;;;;;;5113396;28;20532;-70
2022/05/30 06:08:47;;;;;;;0.40;0.40;;;11.70;99.90;;;;;;5115796;28;20747;-68
2022/05/30 06:11:36;;;;;;;0.50;0.50;;;11.80;99.90;;;;;;5114027;28;20468;-69
2022/05/30 06:14:24;;;;;;;1.03;0.83;;;11.70;99.90;;;;;;5113390;28;20430;-68
2022/05/30 06:17:13;;;;;;;0.40;0.40;;;11.70;99.90;;;;;;5114136;28;20490;-68
2022/05/30 06:20:01;;;;;;;1.03;0.83;;;11.60;99.90;;;;;;5113593;28;21010;-68
2022/05/30 06:22:49;;;;;;;0.40;0.40;;;11.60;99.90;;;;;;5112907;28;20429;-69
2022/05/30 06:25:38;;;;;;;2.83;0.90;;;11.60;99.90;;;;;;5109384;27;20441;-67
2022/05/30 06:28:26;;;;;;;0.40;0.40;;;11.60;99.90;;;;;;5133078;27;20436;-69
2022/05/30 06:31:17;;;;;;;0.50;0.50;;;11.60;99.90;;;;;;5133928;27;20471;-69
2022/05/30 06:34:07;;;;;;;0.53;0.53;;;11.80;99.90;;;;;;5133910;27;20935;-68
2022/05/30 06:36:55;;;;;;;0.40;0.40;;;11.90;99.90;;;;;;5133617;27;20455;-69
2022/05/30 06:39:43;;;;;;;0.40;0.40;;;12.00;99.90;;;;;;5133974;27;20421;-70
2022/05/30 06:42:32;;;;;;;0.40;0.40;;;12.30;99.90;;;;;;5132970;27;20421;-68
2022/05/30 06:45:20;;;;;;;0.50;0.50;;;12.50;99.90;;;;;;5133531;27;20481;-68
2022/05/30 06:48:08;;;;;;;1.03;1.03;;;12.40;99.90;;;;;;5134034;27;20457;-69
2022/05/30 06:50:58;;;;;;;1.27;0.70;;;12.30;99.90;;;;;;5134750;27;20456;-69
2022/05/30 06:53:46;;;;;;;1.00;0.90;;;12.20;99.90;;;;;;5133142;27;20421;-68
2022/05/30 06:56:37;;;;;;;0.40;0.40;;;12.10;99.90;;;;;;5133729;27;20963;-68
2022/05/30 06:59:25;;;;;;;0.40;0.40;;;12.20;99.90;;;;;;5134660;27;20917;-68
2022/05/30 07:02:15;;;;;;;0.80;0.67;;;12.40;99.90;;;;;;5132833;27;20444;-69
2022/05/30 07:05:04;;;;;;;0.40;0.40;;;12.80;99.90;;;;;;5134619;27;20425;-68
2022/05/30 07:07:56;;;;;;;0.40;0.40;;;12.90;99.90;;;;;;5133493;27;20440;-68
2022/05/30 07:10:45;;;;;;;0.40;0.40;;;13.20;99.90;;;;;;5134012;27;20457;-68
2022/05/30 07:13:34;;;;;;;0.80;0.80;;;13.20;99.90;;;;;;5133658;27;20940;-67
2022/05/30 07:16:23;;;;;;;0.50;0.50;;;13.10;99.90;;;;;;5134610;27;20445;-68
2022/05/30 07:19:12;;;;;;;0.40;0.40;;;13.00;99.90;;;;;;5134429;27;20412;-69
2022/05/30 07:22:01;;;;;;;0.67;0.67;;;12.90;99.90;;;;;;5134559;27;20440;-68
2022/05/30 07:24:51;;;;;;;0.40;0.40;;;13.10;99.90;;;;;;5133089;27;20509;-69
2022/05/30 07:27:39;;;;;;;1.13;1.03;;;13.30;99.90;;;;;;5133257;27;20449;-69
2022/05/30 07:30:27;;;;;;;0.80;0.60;;;13.40;99.90;;;;;;5133505;27;20479;-67
2022/05/30 07:33:15;;;;;;;0.40;0.40;;;13.50;99.90;;;;;;5132536;27;20766;-68
2022/05/30 07:36:06;;;;;;;0.40;0.40;;;13.50;99.90;;;;;;5133079;27;20424;-67
2022/05/30 07:38:55;;;;;;;1.07;1.07;;;13.60;99.90;;;;;;5128851;27;20452;-66
2022/05/30 07:41:45;;;;;;;0.70;0.70;;;13.70;99.90;;;;;;5120981;27;20501;-67
2022/05/30 07:44:33;;;;;;;2.57;1.30;;;13.50;99.90;;;;;;5129169;28;20413;-68
2022/05/30 07:47:22;;;;;;;0.50;0.50;;;13.50;99.90;;;;;;5130236;28;20479;-67
2022/05/30 07:50:11;;;;;;;0.40;0.40;;;13.30;99.90;;;;;;5130413;28;20800;-67
2022/05/30 07:52:59;;;;;;;0.40;0.40;;;13.30;99.90;;;;;;5132049;28;20416;-67
2022/05/30 07:55:47;;;;;;;0.60;0.60;;;13.20;99.90;;;;;;5131139;28;20443;-67
2022/05/30 07:58:37;;;;;;;1.07;1.07;;;13.10;99.90;;;;;;5134381;28;20432;-68
2022/05/30 08:01:25;;;;;;;0.50;0.50;;;13.10;99.90;;;;;;5133526;28;20421;-68
2022/05/30 08:04:15;;;;;;;0.40;0.40;;;12.90;99.90;;;;;;5133513;28;20420;-66
2022/05/30 08:07:05;;;;;;;0.50;0.50;;;12.60;99.90;;;;;;5133001;28;20463;-67
2022/05/30 08:09:54;;;;;;;0.40;0.40;;;12.60;99.90;;;;;;5137907;27;20473;-71
2022/05/30 08:12:42;;;;;;;0.47;0.47;;;12.50;99.90;;;;;;5142041;27;20444;-67
2022/05/30 08:15:31;;;;;;;0.40;0.40;;;12.70;99.90;;;;;;5137710;27;20459;-68
2022/05/30 08:18:20;;;;;;;0.50;0.50;;;13.00;99.90;;;;;;5137878;27;20493;-67
2022/05/30 08:21:08;;;;;;;0.40;0.40;;;13.10;99.90;;;;;;5137451;27;20423;-68
2022/05/30 08:23:56;;;;;;;0.40;0.40;;;13.10;99.90;;;;;;5134064;27;20469;-66
2022/05/30 08:26:44;;;;;;;0.50;0.50;;;13.10;99.90;;;;;;5131684;27;20425;-68
2022/05/30 08:29:33;;;;;;;0.40;0.40;;;13.00;99.90;;;;;;5134921;27;20421;-66
2022/05/30 08:32:22;;;;;;;0.80;0.60;;;13.00;99.90;;;;;;5136178;27;20459;-67
2022/05/30 08:35:13;;;;;;;0.40;0.40;;;13.20;99.90;;;;;;5136150;27;20423;-67
2022/05/30 08:38:01;;;;;;;1.00;0.90;;;13.40;99.90;;;;;;5136971;27;20444;-68
2022/05/30 08:43:58;;;;;;;0.40;0.40;;;13.80;99.90;;;;;;5136791;27;20423;-67
2022/05/30 08:46:56;;;;;;;0.40;0.40;;;14.00;99.90;;;;;;5136554;27;20456;-68
2022/05/30 08:49:47;;;;;;;0.93;0.70;;;14.20;99.90;;;;;;5136909;27;20447;-67
2022/05/30 08:52:47;;;;;;;0.40;0.40;;;14.50;99.90;;;;;;5136773;27;20456;-69
2022/05/30 08:55:45;;;;;;;0.53;0.53;;;14.70;99.90;;;;;;5135333;27;20477;-68
2022/05/30 08:58:44;;;;;;;0.60;0.60;;;14.70;99.90;;;;;;5136325;27;20484;-66
2022/05/30 09:01:35;;;;;;;0.70;0.70;;;14.60;99.90;;;;;;5136637;27;21024;-68
2022/05/30 09:04:28;;;;;;;0.80;0.60;;;14.50;99.90;;;;;;5132672;27;20474;-67
2022/05/30 09:07:21;;;;;;;0.50;0.50;;;14.20;99.90;;;;;;5127472;27;20467;-67
2022/05/30 09:10:14;;;;;;;0.50;0.50;;;13.00;99.90;;;;;;5131906;27;20563;-69
2022/05/30 09:13:07;;;;;;;0.40;0.40;;;13.90;99.90;;;;;;5134841;27;20836;-67
2022/05/30 09:16:03;;;;;;;0.40;0.40;;;14.00;99.90;;;;;;5136337;27;20435;-68
2022/05/30 09:18:54;;;;;;;0.50;0.50;;;14.70;99.90;;;;;;5135839;27;20342;-66
2022/05/30 09:21:48;;;;;;;0.40;0.40;;;15.30;99.90;;;;;;5133657;27;20417;-66
2022/05/30 09:24:39;;;;;;;0.40;0.40;;;15.50;99.90;;;;;;5135452;27;20424;-68
2022/05/30 09:27:32;;;;;;;1.00;0.90;;;15.20;99.90;;;;;;5136453;27;20455;-68
2022/05/30 09:30:27;;;;;;;0.40;0.40;;;14.90;99.90;;;;;;5136058;27;20887;-68
2022/05/30 09:33:25;;;;;;;0.50;0.50;;;14.60;99.90;;;;;;5134762;27;20517;-68
2022/05/30 09:36:18;;;;;;;0.40;0.40;;;14.70;99.90;;;;;;5135938;27;20480;-67
2022/05/30 09:39:16;;;;;;;0.47;0.47;;;14.80;99.90;;;;;;5134876;27;20485;-68
2022/05/30 09:42:06;;;;;;;0.50;0.50;;;15.40;99.90;;;;;;5136624;27;20428;-67
2022/05/30 09:44:58;;;;;;;0.60;0.60;;;15.80;99.90;;;;;;5137027;27;20415;-67
2022/05/30 09:47:59;;;;;;;0.50;0.40;;;15.60;99.90;;;;;;5136214;27;20234;-66
2022/05/30 09:50:49;;;;;;;0.50;0.50;;;15.40;99.90;;;;;;5135075;27;20425;-67
2022/05/30 09:53:43;;;;;;;0.70;0.70;;;15.40;99.90;;;;;;5135318;27;20206;-67
2022/05/30 09:56:37;;;;;;;0.40;0.40;;;15.50;99.90;;;;;;5135565;27;20489;-66
2022/05/30 09:59:34;;;;;;;0.50;0.50;;;15.70;99.90;;;;;;5133913;27;20195;-66
2022/05/30 10:02:26;;;;;;;0.60;0.50;;;16.30;99.90;;;;;;5136361;27;20223;-66
2022/05/30 10:05:26;;;;;;;8.83;7.77;;;16.40;99.90;;;;;;5135744;27;20202;-66
2022/05/30 10:08:27;;;;;;;0.40;0.40;;;16.50;99.90;;;;;;5135361;27;20214;-67
2022/05/30 10:11:32;;;;;;;0.40;0.40;;;17.00;99.90;;;;;;5132264;27;20244;-67
2022/05/30 10:14:22;;;;;;;13.02;0.60;;;17.60;99.90;;;;;;5134301;27;20663;-70
2022/05/30 10:17:15;;;;;;;0.40;0.40;;;17.10;99.90;;;;;;5123105;27;20215;-68
2022/05/30 10:20:09;;;;;;;0.40;0.40;;;18.60;99.90;;;;;;5133321;27;20752;-68
2022/05/30 10:29:50;;;;;;;1.35;0.60;;;17.90;99.90;;;;;;5133998;27;20247;-67
2022/05/30 10:32:54;;;;;;;0.50;0.50;;;17.30;99.90;;;;;;5133740;27;20218;-67
2022/05/30 10:35:54;;;;;;;1.88;1.77;;;16.60;99.90;;;;;;5135478;27;20194;-67
2022/05/30 10:38:59;;;;;;;0.65;0.65;;;16.50;99.90;;;;;;5115597;28;20195;-67
2022/05/30 10:41:53;;;;;;;0.60;0.60;;;16.80;99.90;;;;;;5114400;28;20227;-66
2022/05/30 10:44:45;;;;;;;0.40;0.40;;;17.30;99.90;;;;;;5118049;27;20214;-67
2022/05/30 10:47:38;;;;;;;0.40;0.40;;;17.90;99.90;;;;;;5128085;27;20234;-69
2022/05/30 10:50:43;;;;;;;0.47;0.47;;;18.40;99.90;;;;;;5131407;27;20191;-71
2022/05/30 10:53:41;;;;;;;0.40;0.40;;;19.00;99.90;;;;;;5130746;27;20275;-69
2022/05/30 10:56:31;;;;;;;0.40;0.40;;;19.00;99.90;;;;;;5131797;27;20233;-68
2022/05/30 10:59:27;;;;;;;0.88;0.88;;;18.70;99.90;;;;;;5129451;27;20195;-68
2022/05/30 11:02:22;;;;;;;0.73;0.40;;;18.80;99.90;;;;;;5126701;27;20198;-71
2022/05/30 11:05:15;;;;;;;0.57;0.57;;;18.60;99.90;;;;;;5131079;27;20194;-70
2022/05/30 11:08:14;;;;;;;0.47;0.47;;;18.50;99.90;;;;;;5111687;28;20219;-67
2022/05/30 11:11:07;;;;;;;0.40;0.40;;;18.90;99.90;;;;;;5111052;28;20191;-67
2022/05/30 11:14:05;;;;;;;0.40;0.40;;;18.50;99.40;;;;;;5111630;28;20307;-68
2022/05/30 11:16:58;;;;;;;1.50;0.50;;;18.30;99.90;;;;;;5111275;28;20226;-70
2022/05/30 11:19:59;;;;;;;1.83;0.50;;;18.40;99.90;;;;;;5113370;28;20223;-65
2022/05/30 11:22:50;;;;;;;0.50;0.50;;;18.00;99.90;;;;;;5113326;28;20198;-67
2022/05/30 11:26:14;;;;;;;0.40;0.40;;;17.70;99.90;;;;;;5114681;27;20565;-67
2022/05/30 11:29:21;;;;;;;0.75;0.70;;;17.40;99.90;;;;;;5130012;27;20651;-67
2022/05/30 11:32:16;;;;;;;0.40;0.40;;;17.10;99.90;;;;;;5122875;27;20195;-67
2022/05/30 11:35:15;;;;;;;0.50;0.50;;;17.10;99.90;;;;;;5130467;27;20199;-66
2022/05/30 11:38:21;;;;;;;0.60;0.52;;;17.60;99.90;;;;;;5132145;27;20219;-66
2022/05/30 11:41:24;;;;;;;0.40;0.40;;;17.40;99.90;;;;;;5133483;27;20202;-67
2022/05/30 11:44:34;;;;;;;0.60;0.60;;;17.70;99.90;;;;;;5118613;27;20274;-69
2022/05/30 11:47:31;;;;;;;0.73;0.73;;;17.90;99.90;;;;;;5116276;28;20242;-68
2022/05/30 11:50:30;;;;;;;0.50;0.50;;;17.70;99.90;;;;;;5126295;28;20206;-66
2022/05/30 11:53:37;;;;;;;0.63;0.63;;;17.30;99.90;;;;;;5131806;28;20670;-67
2022/05/30 11:56:37;;;;;;;0.40;0.40;;;17.20;99.90;;;;;;5133912;28;20226;-67
2022/05/30 11:59:47;;;;;;;0.40;0.40;;;16.80;99.90;;;;;;5134237;28;20199;-68
2022/05/30 12:03:06;;;;;;;0.60;0.60;;;16.60;99.90;;;;;;5133627;28;20198;-66
2022/05/30 12:06:11;;;;;;;0.40;0.40;;;16.30;99.90;;;;;;5129277;28;20213;-67
2022/05/30 12:09:48;;;;;;;1.95;0.90;;;16.30;99.90;;;;;;5123256;28;20202;-67
2022/05/30 12:12:50;;;;;;;0.40;0.40;;;16.30;99.90;;;;;;5133656;28;20344;-68
2022/05/30 12:16:04;;;;;;;0.97;0.97;;;16.50;99.90;;;;;;5133489;28;20194;-66
2022/05/30 12:25:50;;;;;;;0.40;0.40;;;18.30;99.90;;;;;;5133063;28;20226;-67
2022/05/30 12:28:57;;;;;;;0.50;0.50;;;18.50;99.40;;;;;;5132152;28;20272;-66
2022/05/30 12:31:45;;;;;;;0.50;0.50;;;18.30;98.40;;;;;;5129516;28;20596;-68
2022/05/30 12:35:10;;;;;;;0.40;0.40;;;18.40;99.10;;;;;;5129480;28;20226;-67
2022/05/30 12:38:18;;;;;;;0.65;0.65;;;18.80;98.00;;;;;;5130104;28;20589;-70
2022/05/30 12:41:18;;;;;;;0.70;0.50;;;19.80;97.70;;;;;;5129423;28;20197;-68
2022/05/30 12:44:23;;;;;;;0.40;0.40;;;21.90;94.50;;;;;;5128889;28;20187;-68
2022/05/30 12:47:19;;;;;;;0.40;0.40;;;23.40;92.20;;;;;;5132528;28;20222;-67
2022/05/30 12:50:37;;;;;;;0.50;0.50;;;25.20;87.50;;;;;;5132386;28;20206;-67
2022/05/30 12:53:42;;;;;;;0.40;0.40;;;24.50;82.30;;;;;;5131013;28;20705;-67
2022/05/30 12:57:05;;;;;;;0.50;0.50;;;23.60;81.30;;;;;;5134364;27;20698;-69
2022/05/30 13:00:15;;;;;;;1.08;0.98;;;23.60;80.30;;;;;;5136035;27;20217;-67
2022/05/30 13:03:22;;;;;;;1.40;0.50;;;24.50;79.40;;;;;;5135204;27;20202;-67
2022/05/30 13:06:23;;;;;;;0.57;0.50;;;22.90;80.50;;;;;;5134907;27;20194;-69
2022/05/30 13:09:20;;;;;;;1.48;1.05;;;23.00;80.80;;;;;;5135178;27;20198;-67
2022/05/30 13:12:21;;;;;;;0.93;0.60;;;24.40;80.00;;;;;;5133695;27;20202;-66
2022/05/30 13:15:16;;;;;;;0.40;0.40;;;26.70;72.70;;;;;;5133369;27;20195;-67
2022/05/30 13:18:13;;;;;;;1.67;0.55;;;27.70;67.70;;;;;;5135177;27;20214;-67
2022/05/30 13:21:04;;;;;;;0.40;0.40;;;29.30;63.30;;;;;;5133913;27;20202;-67
2022/05/30 13:23:53;;;;;;;0.40;0.40;;;29.20;61.10;;;;;;5133347;27;20275;-67
2022/05/30 13:26:41;;;;;;;0.50;0.50;;;27.00;61.60;;;;;;5134644;27;20218;-68
2022/05/30 13:29:31;;;;;;;0.40;0.40;;;24.70;64.20;;;;;;5135650;27;20206;-68
2022/05/30 13:32:23;;;;;;;0.40;0.40;;;24.70;65.00;;;;;;5134842;27;20199;-67
2022/05/30 13:35:13;;;;;;;0.40;0.40;;;25.00;63.50;;;;;;5133954;27;20203;-67
2022/05/30 13:38:05;;;;;;;0.40;0.40;;;23.60;65.30;;;;;;5133904;27;20218;-68
2022/05/30 13:40:53;;;;;;;0.40;0.40;;;21.70;68.90;;;;;;5135565;27;20215;-68
2022/05/30 13:43:43;;;;;;;0.40;0.40;;;20.20;72.60;;;;;;5140258;27;20206;-68
2022/05/30 13:46:53;;;;;;;0.63;0.63;;;19.30;76.10;;;;;;5136162;27;20304;-70
2022/05/30 13:49:51;;;;;;;0.77;0.77;;;18.70;78.10;;;;;;5138699;27;20205;-68
2022/05/30 13:52:40;;;;;;;0.40;0.40;;;18.60;79.20;;;;;;5136163;27;20202;-69
2022/05/30 13:55:28;;;;;;;0.40;0.40;;;18.30;79.90;;;;;;5137720;27;20243;-67
2022/05/30 13:58:17;;;;;;;0.80;0.70;;;17.90;81.40;;;;;;5135120;27;20242;-68
2022/05/30 14:01:11;;;;;;;0.75;0.75;;;17.40;83.20;;;;;;5135515;27;20228;-67
2022/05/30 14:04:02;;;;;;;0.50;0.50;;;17.20;85.30;;;;;;5134768;27;20667;-67
2022/05/30 14:06:52;;;;;;;0.70;0.60;;;17.40;86.10;;;;;;5129727;27;20230;-67
2022/05/30 14:09:41;;;;;;;0.70;0.70;;;17.50;86.00;;;;;;5127156;27;20204;-67
2022/05/30 14:12:31;;;;;;;1.15;0.68;;;17.70;86.00;;;;;;5116521;27;20191;-67
2022/05/30 14:15:24;;;;;;;0.88;0.88;;;17.80;84.20;;;;;;5133902;27;20642;-66
2022/05/30 14:18:27;;;;;;;0.40;0.40;;;18.00;82.50;;;;;;5135490;27;20219;-67
2022/05/30 14:21:26;;;;;;;0.63;0.63;;;18.30;82.70;;;;;;5135930;27;20678;-66
2022/05/30 14:24:25;;;;;;;0.57;0.57;;;18.30;81.70;;;;;;5136763;27;20195;-67
2022/05/30 14:27:20;;;;;;;0.47;0.47;;;18.40;81.90;;;;;;5136162;27;20219;-67
2022/05/30 14:30:17;;;;;;;0.40;0.40;;;18.30;87.40;;;;;;5134118;27;20190;-68
2022/05/30 14:33:09;;;;;;;0.40;0.40;;;18.20;90.20;;;;;;5135130;27;20619;-66
2022/05/30 14:36:22;;;;;;;0.40;0.40;;;18.00;90.60;;;;;;5134901;27;20194;-66
2022/05/30 14:39:15;;;;;;;0.40;0.40;;;17.50;91.10;;;;;;5133743;27;20198;-67
2022/05/30 14:42:05;;;;;;;0.50;0.50;;;17.40;92.30;;;;;;5133757;27;20211;-69
2022/05/30 14:44:57;;;;;;;1.33;0.80;;;17.20;92.00;;;;;;5125883;27;20195;-67
2022/05/30 14:47:49;;;;;;;0.40;0.40;;;17.00;91.80;;;;;;5133823;27;20321;-66
2022/05/30 14:50:42;;;;;;;0.40;0.40;;;16.80;92.00;;;;;;5134434;27;20203;-67
2022/05/30 14:53:34;;;;;;;0.50;0.45;;;16.80;92.60;;;;;;5134142;27;20238;-68
2022/05/30 14:56:26;;;;;;;0.40;0.40;;;16.90;92.60;;;;;;5133292;27;20215;-68
2022/05/30 14:59:31;;;;;;;0.40;0.40;;;16.90;92.90;;;;;;5133931;27;20277;-67
2022/05/30 15:05:27;;;;;;;0.40;0.40;;;16.70;93.30;;;;;;5133060;27;20197;-68
2022/05/30 15:08:15;;;;;;;0.40;0.40;;;16.70;92.80;;;;;;5134236;27;20595;-66
2022/05/30 15:11:15;;;;;;;0.40;0.40;;;16.70;92.80;;;;;;5133463;27;20191;-66
2022/05/30 15:14:08;;;;;;;0.60;0.60;;;16.80;92.70;;;;;;5134079;27;20211;-67
2022/05/30 15:16:59;;;;;;;0.40;0.40;;;16.90;92.90;;;;;;5133707;27;20214;-68
2022/05/30 15:19:47;;;;;;;0.50;0.50;;;17.10;92.80;;;;;;5132071;27;20739;-67
2022/05/30 15:22:35;;;;;;;0.40;0.40;;;17.20;92.90;;;;;;5133079;27;20248;-67
2022/05/30 15:25:25;;;;;;;0.65;0.65;;;17.30;92.90;;;;;;5131524;27;20206;-67
2022/05/30 15:28:14;;;;;;;0.93;0.93;;;17.20;92.40;;;;;;5134561;27;20215;-67